Time;durP1;ratioP1;P1;durP2;ratioP2;P2;SDS_P1;SDS_P2;PMS_P1;PMS_P2;Temp;Humidity;BMP_temperature;BMP_pressure;BME280_temperature;BME280_humidity;BME280_pressure;Samples;Min_cycle;Max_cycle;Signal;HPM_P1;HPM_P2
2021/12/04 00:01:51;;;;;;;30.63;15.43;;;;;;;3.42;97.30;100016.66;5074325;28;20141;-73
2021/12/04 00:04:24;;;;;;;29.17;14.13;;;;;;;3.41;97.17;100009.72;5044460;28;20181;-73
2021/12/04 00:06:50;;;;;;;30.63;14.27;;;;;;;3.42;97.22;100016.66;5044062;28;20044;-73
2021/12/04 00:09:18;;;;;;;31.83;14.88;;;;;;;3.42;97.00;100003.78;5042638;28;20029;-72
2021/12/04 00:11:51;;;;;;;31.20;15.63;;;;;;;3.42;96.96;99996.91;5042973;28;20264;-72
2021/12/04 00:14:16;;;;;;;32.78;14.88;;;;;;;3.42;96.69;99990.91;5081322;28;20092;-73
2021/12/04 00:16:41;;;;;;;29.98;14.25;;;;;;;3.43;96.94;99982.31;5044476;28;20038;-73
2021/12/04 00:19:07;;;;;;;29.10;14.43;;;;;;;3.43;96.81;99966.88;5031731;28;20049;-72
2021/12/04 00:21:32;;;;;;;27.08;13.68;;;;;;;3.43;96.86;99977.19;5040254;28;20268;-72
2021/12/04 00:23:57;;;;;;;25.00;13.02;;;;;;;3.43;97.00;99964.31;5067286;28;20033;-73
2021/12/04 00:26:23;;;;;;;28.45;13.45;;;;;;;3.43;96.92;99961.72;5037897;28;20352;-72
2021/12/04 00:28:48;;;;;;;26.10;12.90;;;;;;;3.44;96.80;99968.63;5038860;28;20272;-72
2021/12/04 00:31:13;;;;;;;26.08;13.45;;;;;;;3.44;96.81;99963.50;5031367;28;20021;-73
2021/12/04 00:33:42;;;;;;;30.25;13.55;;;;;;;3.46;96.81;99964.41;5033951;28;20116;-72
2021/12/04 00:36:13;;;;;;;30.08;15.13;;;;;;;3.46;96.79;99964.41;5028370;28;20045;-73
2021/12/04 00:49:24;;;;;;;28.00;14.23;;;;;;;3.48;96.62;99950.78;5032664;28;20049;-73
2021/12/04 00:51:54;;;;;;;28.80;14.18;;;;;;;3.47;96.49;99959.31;5038639;28;20021;-73
2021/12/04 00:54:19;;;;;;;;;;;;;;;3.51;96.53;99950.03;5030160;28;20172;-73
2021/12/04 00:56:45;;;;;;;30.10;13.73;;;;;;;3.48;96.66;99945.63;5033027;28;19909;-72
2021/12/04 00:59:11;;;;;;;28.40;13.82;;;;;;;3.48;96.72;99947.34;5035565;28;20030;-72
2021/12/04 01:01:39;;;;;;;30.52;14.00;;;;;;;3.47;96.77;99946.44;5031924;28;20037;-73
2021/12/04 01:04:11;;;;;;;31.27;14.98;;;;;;;3.49;96.70;99951.69;5060160;28;20264;-72
2021/12/04 01:06:37;;;;;;;31.58;14.40;;;;;;;3.50;96.32;99949.97;5032719;28;20151;-72
2021/12/04 01:09:07;;;;;;;30.73;14.27;;;;;;;3.49;96.65;99946.53;5029950;28;20264;-73
2021/12/04 01:11:33;;;;;;;28.92;13.48;;;;;;;3.49;96.87;99949.09;5027251;28;20303;-72
2021/12/04 01:13:58;;;;;;;28.20;13.77;;;;;;;3.50;96.97;99952.53;5054777;28;20018;-72
2021/12/04 01:16:23;;;;;;;31.70;14.48;;;;;;;3.50;96.98;99955.13;5029306;28;20045;-72
2021/12/04 01:18:48;;;;;;;30.65;14.30;;;;;;;3.50;96.86;99956.00;5032612;28;20026;-72
2021/12/04 01:21:14;;;;;;;32.83;15.45;;;;;;;3.50;96.62;99953.41;5053288;28;20025;-72
2021/12/04 01:23:39;;;;;;;30.25;13.77;;;;;;;3.51;96.70;99954.31;5068275;28;20018;-72
2021/12/04 01:26:05;;;;;;;29.63;13.68;;;;;;;3.52;96.86;99956.94;5028840;28;20025;-72
2021/12/04 01:28:31;;;;;;;30.40;14.20;;;;;;;3.51;96.80;99957.75;5062074;28;20029;-72
2021/12/04 01:30:56;;;;;;;31.70;14.93;;;;;;;3.52;96.86;99956.94;5032538;28;20220;-72
2021/12/04 01:33:22;;;;;;;28.13;13.48;;;;;;;3.52;96.78;99949.22;5034366;28;20036;-72
2021/12/04 01:35:47;;;;;;;28.27;13.60;;;;;;;3.55;96.78;99948.44;5032218;28;20026;-72
2021/12/04 01:38:12;;;;;;;28.50;13.10;;;;;;;3.55;96.73;99938.13;5038121;28;20252;-72
2021/12/04 01:40:38;;;;;;;28.17;13.30;;;;;;;3.55;96.88;99938.13;5039747;28;20037;-73
2021/12/04 01:43:05;;;;;;;30.40;13.45;;;;;;;3.56;96.86;99939.88;5038954;28;20060;-72
2021/12/04 01:45:30;;;;;;;29.10;13.73;;;;;;;3.56;96.78;99948.47;5034265;28;20045;-72
2021/12/04 01:48:00;;;;;;;27.08;13.38;;;;;;;3.56;96.99;99950.19;5032656;28;20039;-72
2021/12/04 01:50:27;;;;;;;30.20;14.00;;;;;;;3.56;96.53;99940.75;5033760;28;20026;-73
2021/12/04 01:52:55;;;;;;;27.92;13.93;;;;;;;3.57;96.75;99934.78;5058596;28;20017;-72
2021/12/04 01:55:24;;;;;;;28.65;12.77;;;;;;;3.57;97.02;99934.78;5074095;28;20226;-72
2021/12/04 01:57:49;;;;;;;29.63;13.15;;;;;;;3.57;96.60;99932.22;5034357;28;20026;-72
2021/12/04 02:00:15;;;;;;;29.70;13.43;;;;;;;3.58;96.83;99927.97;5039835;28;20073;-72
2021/12/04 02:02:40;;;;;;;26.27;12.57;;;;;;;3.58;96.89;99931.41;5036996;28;20033;-73
2021/12/04 02:05:06;;;;;;;28.48;13.18;;;;;;;3.60;97.29;99928.88;5035143;28;20022;-72
2021/12/04 02:07:31;;;;;;;30.95;12.88;;;;;;;3.59;96.70;99934.84;5030749;28;20030;-73
2021/12/04 02:09:57;;;;;;;27.48;12.13;;;;;;;3.61;96.86;99930.66;5031741;28;20049;-73
2021/12/04 02:12:22;;;;;;;26.48;12.60;;;;;;;3.60;96.54;99918.56;5041220;28;20037;-73
2021/12/04 02:14:47;;;;;;;26.33;12.80;;;;;;;3.61;96.71;99915.19;5037137;28;20026;-73
2021/12/04 02:17:13;;;;;;;26.70;11.82;;;;;;;3.60;96.84;99904.00;5032577;28;20060;-73
2021/12/04 02:19:39;;;;;;;28.23;12.45;;;;;;;3.62;96.70;99898.88;5034791;28;20021;-73
2021/12/04 02:22:05;;;;;;;27.92;12.65;;;;;;;3.61;97.00;99892.00;5057075;28;20032;-73
2021/12/04 02:24:30;;;;;;;29.83;13.23;;;;;;;3.62;96.73;99886.91;5033216;28;20096;-73
2021/12/04 02:26:55;;;;;;;27.63;12.05;;;;;;;3.62;96.64;99881.75;5038742;28;20280;-73
2021/12/04 02:29:21;;;;;;;26.95;12.25;;;;;;;3.61;96.84;99880.00;5035601;28;20045;-72
2021/12/04 02:31:52;;;;;;;28.00;12.63;;;;;;;3.63;96.65;99882.63;5034609;28;20088;-73
2021/12/04 02:34:23;;;;;;;31.20;13.07;;;;;;;3.63;96.80;99872.31;5030572;28;20046;-73
2021/12/04 02:36:49;;;;;;;40.92;15.45;;;;;;;3.61;96.80;99864.53;5035063;28;20037;-73
2021/12/04 02:39:31;;;;;;;49.58;17.10;;;;;;;3.64;96.88;99864.66;5026616;28;20156;-73
2021/12/04 02:41:58;;;;;;;38.88;15.55;;;;;;;3.62;96.47;99856.00;5036336;28;20299;-73
2021/12/04 02:44:35;;;;;;;44.28;16.42;;;;;;;3.64;96.79;99859.50;5032974;28;20040;-73
2021/12/04 02:47:01;;;;;;;46.95;16.77;;;;;;;3.63;96.47;99855.16;5033039;28;20033;-73
2021/12/04 02:49:26;;;;;;;56.97;21.60;;;;;;;3.63;96.27;99862.88;5031164;28;20180;-73
2021/12/04 02:51:51;;;;;;;38.65;15.82;;;;;;;3.64;96.33;99854.34;5039120;28;20101;-73
2021/12/04 02:54:17;;;;;;;44.90;18.23;;;;;;;3.65;96.58;99853.53;5029093;28;20290;-73
2021/12/04 02:56:44;;;;;;;51.63;20.45;;;;;;;3.65;96.42;99850.94;5035431;28;20048;-73
2021/12/04 02:59:10;;;;;;;34.05;15.27;;;;;;;3.65;96.41;99850.94;5074548;28;20029;-73
2021/12/04 03:01:40;;;;;;;32.22;14.02;;;;;;;3.64;96.45;99862.06;5031922;28;20217;-73
2021/12/04 03:04:07;;;;;;;49.75;20.38;;;;;;;3.64;96.16;99851.75;5069908;28;20220;-73
2021/12/04 03:06:45;;;;;;;31.75;14.00;;;;;;;3.65;96.19;99857.81;5031505;28;20030;-73
2021/12/04 03:09:11;;;;;;;28.05;12.73;;;;;;;3.65;96.35;99858.69;5035117;28;20342;-73
2021/12/04 03:11:37;;;;;;;30.20;12.57;;;;;;;3.65;96.44;99850.09;5069780;28;20292;-73
2021/12/04 03:14:03;;;;;;;30.98;13.80;;;;;;;3.67;96.20;99852.72;5031432;28;20276;-72
2021/12/04 03:16:29;;;;;;;28.95;13.88;;;;;;;3.67;96.34;99845.84;5035003;28;20053;-72
2021/12/04 03:18:54;;;;;;;29.90;13.32;;;;;;;3.67;96.40;99837.25;5030243;28;20271;-73
2021/12/04 03:21:20;;;;;;;28.42;12.40;;;;;;;3.67;96.23;99834.69;5028162;28;20029;-73
2021/12/04 03:23:57;;;;;;;29.73;13.38;;;;;;;3.66;96.26;99836.38;5070622;28;20021;-73
2021/12/04 03:26:24;;;;;;;28.35;11.35;;;;;;;3.65;96.22;99830.34;5034678;28;21102;-73
2021/12/04 03:28:51;;;;;;;24.38;10.93;;;;;;;3.65;96.39;99830.34;5036819;28;20104;-73
2021/12/04 03:31:41;;;;;;;24.35;11.40;;;;;;;3.64;96.25;99820.84;5028885;28;20219;-73
2021/12/04 03:42:20;;;;;;;42.08;16.50;;;;;;;3.63;96.44;99825.94;5029707;28;20239;-72
2021/12/04 03:44:45;;;;;;;50.45;19.92;;;;;;;3.63;96.46;99821.66;5032155;28;20088;-73
2021/12/04 03:47:11;;;;;;;33.92;14.65;;;;;;;3.63;96.40;99813.06;5032348;28;20097;-72
2021/12/04 03:49:38;;;;;;;70.22;25.77;;;;;;;3.61;95.93;99815.59;5041886;28;20032;-73
2021/12/04 03:52:04;;;;;;;23.02;9.90;;;;;;;3.64;96.21;99807.09;5027475;28;20025;-72
2021/12/04 03:54:30;;;;;;;20.45;9.45;;;;;;;3.64;96.36;99802.81;5030861;28;20037;-72
2021/12/04 03:57:04;;;;;;;31.88;13.63;;;;;;;3.64;96.36;99799.38;5029499;28;20022;-72
2021/12/04 03:59:35;;;;;;;38.78;15.45;;;;;;;3.64;96.26;99799.38;5038219;28;20295;-73
2021/12/04 04:02:02;;;;;;;21.95;10.27;;;;;;;3.65;96.29;99807.16;5034169;28;20084;-73
2021/12/04 04:04:27;;;;;;;30.10;12.68;;;;;;;3.63;96.23;99806.22;5029921;28;20097;-73
2021/12/04 04:06:52;;;;;;;21.58;9.43;;;;;;;3.63;96.03;99811.38;5031994;28;20067;-73
2021/12/04 04:09:18;;;;;;;25.08;11.18;;;;;;;3.62;96.37;99804.47;5027392;28;20319;-72
2021/12/04 04:11:44;;;;;;;16.15;8.40;;;;;;;3.64;96.10;99796.81;5036293;28;20034;-73
2021/12/04 04:14:09;;;;;;;21.98;9.98;;;;;;;3.63;96.28;99795.91;5030327;28;20056;-72
2021/12/04 04:16:37;;;;;;;27.55;12.05;;;;;;;3.63;96.23;99790.75;5065331;28;20021;-73
2021/12/04 04:19:03;;;;;;;21.52;10.63;;;;;;;3.64;96.18;99795.09;5064355;28;20024;-73
2021/12/04 04:21:29;;;;;;;34.38;15.77;;;;;;;3.64;96.14;99784.78;5029790;28;20025;-73
2021/12/04 04:23:54;;;;;;;20.40;10.13;;;;;;;3.64;96.02;99779.63;5037570;28;20093;-72
2021/12/04 04:26:19;;;;;;;18.95;9.63;;;;;;;3.67;96.10;99783.16;5038885;28;20331;-72
2021/12/04 04:28:45;;;;;;;16.35;7.97;;;;;;;3.65;96.09;99778.81;5031114;28;20029;-73
2021/12/04 04:31:10;;;;;;;16.23;7.63;;;;;;;3.67;96.34;99775.44;5063587;28;20029;-73
2021/12/04 04:33:40;;;;;;;18.77;8.80;;;;;;;3.65;96.28;99780.53;5032219;28;20064;-73
2021/12/04 04:36:20;;;;;;;25.48;11.65;;;;;;;3.64;96.17;99774.50;5034955;28;20042;-73
2021/12/04 04:39:07;;;;;;;20.63;9.68;;;;;;;3.65;96.36;99778.81;5026427;28;20021;-73
2021/12/04 05:00:46;;;;;;;15.00;7.15;;;;;;;3.64;96.23;99766.75;5038733;28;20025;-73
2021/12/04 05:11:11;;;;;;;13.25;6.50;;;;;;;3.65;96.14;99760.78;5041789;28;20203;-72
2021/12/04 05:13:38;;;;;;;15.57;7.95;;;;;;;3.65;96.35;99768.53;5039763;28;20032;-72
2021/12/04 05:16:30;;;;;;;14.32;6.75;;;;;;;3.66;96.54;99759.09;5031826;28;20045;-73
2021/12/04 05:18:56;;;;;;;19.15;8.68;;;;;;;3.66;96.05;99741.03;5035058;28;20041;-72
2021/12/04 05:21:21;;;;;;;12.50;5.80;;;;;;;3.67;96.34;99736.78;5033237;28;20040;-73
2021/12/04 05:23:53;;;;;;;12.00;5.95;;;;;;;3.67;96.34;99739.38;5058319;28;20053;-72
2021/12/04 05:26:27;;;;;;;16.55;6.82;;;;;;;3.67;96.40;99739.38;5037699;28;20025;-73
2021/12/04 05:28:54;;;;;;;17.67;8.07;;;;;;;3.67;96.46;99737.66;5036503;28;20024;-73
2021/12/04 05:31:20;;;;;;;14.55;7.07;;;;;;;3.68;96.20;99742.00;5033755;28;20060;-72
2021/12/04 05:33:46;;;;;;;13.40;5.82;;;;;;;3.69;96.29;99742.84;5032907;28;20041;-73
2021/12/04 05:36:12;;;;;;;13.90;6.28;;;;;;;3.68;96.28;99747.16;5029433;28;20189;-72
2021/12/04 05:38:38;;;;;;;20.38;9.48;;;;;;;3.70;96.47;99736.88;5038752;28;20025;-73
2021/12/04 05:41:03;;;;;;;11.32;5.95;;;;;;;3.70;96.18;99739.47;5032689;28;20049;-72
2021/12/04 05:43:29;;;;;;;13.93;6.30;;;;;;;3.71;96.17;99746.34;5033459;28;20021;-72
2021/12/04 05:46:05;;;;;;;15.95;6.57;;;;;;;3.70;96.18;99740.34;5032138;28;20187;-72
2021/12/04 05:48:39;;;;;;;104.40;28.25;;;;;;;3.70;96.20;99734.31;5029032;28;20317;-72
2021/12/04 05:51:22;;;;;;;17.55;7.80;;;;;;;3.71;96.00;99733.47;5039662;28;20113;-73
2021/12/04 05:56:26;;;;;;;24.58;9.60;;;;;;;3.71;96.26;99736.94;5031263;28;20307;-72
2021/12/04 05:58:52;;;;;;;15.05;6.55;;;;;;;3.71;96.21;99729.22;5032583;28;20033;-73
2021/12/04 06:01:19;;;;;;;12.52;6.28;;;;;;;3.71;96.14;99730.91;5035584;28;20313;-73
2021/12/04 06:03:45;;;;;;;15.48;7.57;;;;;;;3.70;96.07;99727.44;5039114;28;20048;-72
2021/12/04 06:06:11;;;;;;;14.98;7.05;;;;;;;3.72;96.24;99730.97;5029109;28;20033;-73
2021/12/04 06:08:36;;;;;;;18.92;9.00;;;;;;;3.72;96.10;99722.34;5027698;28;20184;-73
2021/12/04 06:11:01;;;;;;;14.15;6.13;;;;;;;3.73;95.93;99734.41;5038541;28;20032;-73
2021/12/04 06:13:27;;;;;;;15.50;6.30;;;;;;;3.73;96.04;99724.09;5038690;28;20048;-73
2021/12/04 06:15:53;;;;;;;12.30;5.65;;;;;;;3.74;96.02;99720.72;5039561;28;20029;-73
2021/12/04 06:18:20;;;;;;;11.45;5.68;;;;;;;3.75;96.32;99712.13;5031172;28;20022;-73
2021/12/04 06:23:32;;;;;;;16.58;7.63;;;;;;;3.76;96.22;99721.63;5033310;28;20029;-73
2021/12/04 06:25:57;;;;;;;13.77;5.80;;;;;;;3.76;96.08;99716.47;5037375;28;20030;-73
2021/12/04 06:28:23;;;;;;;13.27;6.32;;;;;;;3.76;96.10;99713.91;5032981;28;20080;-73
2021/12/04 06:30:48;;;;;;;15.13;6.93;;;;;;;3.77;96.24;99716.53;5028927;28;20018;-73
2021/12/04 06:33:17;;;;;;;12.75;6.10;;;;;;;3.78;96.10;99719.97;5037710;28;20370;-72
2021/12/04 06:35:43;;;;;;;15.43;6.55;;;;;;;3.78;96.19;99717.38;5037404;28;20029;-73
2021/12/04 06:38:10;;;;;;;12.45;5.70;;;;;;;3.78;95.98;99722.53;5030399;28;20151;-72
2021/12/04 06:40:36;;;;;;;15.15;6.85;;;;;;;3.79;96.30;99724.31;5029230;28;20041;-72
2021/12/04 06:43:03;;;;;;;17.73;8.40;;;;;;;3.80;95.89;99728.63;5031183;28;20038;-72
2021/12/04 06:45:31;;;;;;;11.52;5.72;;;;;;;3.80;96.24;99726.06;5035674;28;20021;-72
2021/12/04 06:48:04;;;;;;;13.87;6.40;;;;;;;3.80;96.05;99723.50;5033188;28;20105;-73
2021/12/04 06:50:43;;;;;;;15.93;6.18;;;;;;;3.81;96.25;99728.69;5062775;28;20041;-73
2021/12/04 06:53:25;;;;;;;15.15;6.22;;;;;;;3.81;96.08;99728.69;5033380;28;20214;-72
2021/12/04 06:55:54;;;;;;;12.18;5.65;;;;;;;3.81;96.02;99726.09;5032486;28;20032;-73
2021/12/04 06:58:22;;;;;;;13.97;6.70;;;;;;;3.82;96.00;99732.13;5030785;28;20116;-73
2021/12/04 07:00:47;;;;;;;16.73;6.95;;;;;;;3.82;95.93;99730.44;5036304;28;20022;-72
2021/12/04 07:03:13;;;;;;;12.85;6.18;;;;;;;3.83;96.38;99732.19;5069171;28;20104;-72
2021/12/04 07:05:38;;;;;;;15.63;6.47;;;;;;;3.82;96.04;99726.97;5030036;28;20025;-72
2021/12/04 07:08:05;;;;;;;15.13;6.68;;;;;;;3.82;96.39;99733.03;5032127;28;20956;-73
2021/12/04 07:10:32;;;;;;;20.52;7.25;;;;;;;3.81;96.14;99726.09;5028859;28;20260;-73
2021/12/04 07:12:57;;;;;;;16.17;6.55;;;;;;;3.82;96.27;99730.44;5037801;28;20093;-72
2021/12/04 07:15:26;;;;;;;16.83;7.05;;;;;;;3.81;96.31;99722.66;5043643;28;20036;-72
2021/12/04 07:17:52;;;;;;;15.32;6.20;;;;;;;3.82;96.15;99724.41;5043779;28;20260;-72
2021/12/04 07:20:17;;;;;;;15.10;6.22;;;;;;;3.81;96.42;99726.09;5043606;28;20037;-73
2021/12/04 07:22:42;;;;;;;17.15;6.90;;;;;;;3.82;96.83;99725.28;5050338;28;20096;-73
2021/12/04 07:25:08;;;;;;;15.63;6.63;;;;;;;3.83;96.21;99726.16;5043593;28;20033;-73
2021/12/04 07:27:33;;;;;;;18.13;6.80;;;;;;;3.82;96.47;99719.25;5052584;28;20026;-73
2021/12/04 07:30:00;;;;;;;15.88;6.50;;;;;;;3.83;96.31;99726.16;5042620;28;20051;-73
2021/12/04 07:32:25;;;;;;;17.35;7.13;;;;;;;3.82;96.27;99720.13;5043590;28;20021;-73
2021/12/04 07:34:51;;;;;;;18.73;7.43;;;;;;;3.82;96.39;99720.13;5043768;28;20112;-73
2021/12/04 07:37:17;;;;;;;15.68;6.75;;;;;;;3.82;96.41;99714.09;5053788;28;20079;-73
2021/12/04 07:39:42;;;;;;;18.35;7.15;;;;;;;3.82;96.39;99719.25;5047958;28;20032;-73
2021/12/04 07:42:07;;;;;;;16.40;6.82;;;;;;;3.84;96.71;99725.34;5075374;28;20330;-73
2021/12/04 07:44:33;;;;;;;16.70;7.05;;;;;;;3.85;96.21;99713.31;5031764;28;20034;-73
2021/12/04 07:46:58;;;;;;;16.85;6.68;;;;;;;3.85;96.44;99709.03;5038614;28;20253;-73
2021/12/04 07:49:24;;;;;;;16.67;6.47;;;;;;;3.86;96.24;99709.94;5039989;28;20175;-73
2021/12/04 07:51:50;;;;;;;18.17;6.97;;;;;;;3.86;96.49;99704.78;5028934;28;20034;-73
2021/12/04 07:54:16;;;;;;;17.88;7.03;;;;;;;3.88;96.42;99708.25;5028291;28;20332;-73
2021/12/04 07:56:41;;;;;;;18.35;7.43;;;;;;;3.88;96.48;99706.59;5043834;28;20029;-73
2021/12/04 07:59:07;;;;;;;16.92;7.38;;;;;;;3.88;96.36;99709.16;5032877;28;20266;-73
2021/12/04 08:01:32;;;;;;;22.40;8.32;;;;;;;3.89;96.46;99699.72;5035285;28;20156;-72
2021/12/04 08:03:57;;;;;;;17.40;6.65;;;;;;;3.90;96.27;99697.19;5038275;28;20023;-73
2021/12/04 08:06:23;;;;;;;21.75;7.35;;;;;;;3.90;96.04;99701.47;5032423;28;20104;-73
2021/12/04 08:08:48;;;;;;;19.13;7.60;;;;;;;3.90;96.05;99694.59;5027954;28;20026;-73
2021/12/04 08:11:14;;;;;;;18.35;8.25;;;;;;;3.90;96.24;99689.44;5032400;28;20199;-72
2021/12/04 08:13:39;;;;;;;19.75;7.45;;;;;;;3.92;96.23;99698.09;5027078;28;20034;-73
2021/12/04 08:16:04;;;;;;;20.40;7.43;;;;;;;3.93;96.50;99696.41;5032402;28;20459;-73
2021/12/04 08:18:30;;;;;;;15.80;7.47;;;;;;;3.94;96.34;99691.31;5038308;28;20157;-73
2021/12/04 08:20:55;;;;;;;19.90;8.38;;;;;;;3.95;95.93;99689.59;5034959;28;20133;-72
2021/12/04 08:23:21;;;;;;;18.10;8.43;;;;;;;3.96;96.19;99681.03;5033323;28;20056;-72
2021/12/04 08:25:47;;;;;;;20.27;7.78;;;;;;;3.96;96.53;99679.31;5036583;28;20343;-72
2021/12/04 08:28:13;;;;;;;18.73;7.20;;;;;;;3.97;96.43;99669.91;5037584;28;20290;-72
2021/12/04 08:30:40;;;;;;;18.02;8.30;;;;;;;3.97;96.39;99665.63;5037540;28;20041;-73
2021/12/04 08:33:07;;;;;;;25.77;10.60;;;;;;;3.99;96.29;99671.69;5034302;28;20108;-72
2021/12/04 08:35:38;;;;;;;23.08;9.27;;;;;;;4.01;96.16;99661.44;5064832;28;20168;-72
2021/12/04 08:38:04;;;;;;;21.63;8.20;;;;;;;4.03;96.12;99658.91;5036504;28;20087;-73
2021/12/04 08:40:30;;;;;;;20.48;8.80;;;;;;;4.02;96.15;99654.59;5031010;28;20962;-72
2021/12/04 08:42:56;;;;;;;17.40;7.00;;;;;;;4.03;96.29;99657.22;5035711;28;20080;-72
2021/12/04 08:45:21;;;;;;;16.05;7.53;;;;;;;4.04;96.18;99647.75;5037594;28;20089;-72
2021/12/04 08:47:47;;;;;;;14.30;6.35;;;;;;;4.06;96.08;99651.28;5029602;28;20096;-72
2021/12/04 08:50:16;;;;;;;17.60;7.57;;;;;;;4.06;96.32;99646.13;5029367;28;20307;-72
2021/12/04 08:52:42;;;;;;;28.77;15.02;;;;;;;4.07;96.33;99645.28;5029284;28;20280;-71
2021/12/04 08:55:08;;;;;;;17.10;7.80;;;;;;;4.08;96.04;99639.31;5059018;28;20025;-72
2021/12/04 08:57:34;;;;;;;18.58;8.70;;;;;;;4.07;96.17;99634.97;5027656;28;20042;-72
2021/12/04 09:00:00;;;;;;;21.15;9.13;;;;;;;4.07;96.34;99627.22;5061622;28;20100;-72
2021/12/04 09:02:26;;;;;;;21.00;8.48;;;;;;;4.09;96.06;99630.75;5032638;28;20064;-72
2021/12/04 09:04:54;;;;;;;23.00;9.93;;;;;;;4.10;96.15;99635.94;5035533;28;20033;-72
2021/12/04 09:07:21;;;;;;;24.23;11.68;;;;;;;4.12;96.14;99647.16;5030261;28;20116;-72
2021/12/04 09:09:47;;;;;;;19.65;8.90;;;;;;;4.15;96.18;99647.25;5027957;28;20026;-72
2021/12/04 09:12:15;;;;;;;18.55;8.02;;;;;;;4.16;96.17;99645.56;5037268;28;20203;-71
2021/12/04 09:14:45;;;;;;;34.78;13.45;;;;;;;4.20;96.21;99649.09;5030476;28;20021;-73
2021/12/04 09:17:15;;;;;;;26.15;10.90;;;;;;;4.22;96.06;99642.31;5034590;28;20083;-73
2021/12/04 09:19:40;;;;;;;52.17;26.42;;;;;;;4.23;96.19;99650.09;5030486;28;20156;-72
2021/12/04 09:22:11;;;;;;;20.85;8.77;;;;;;;4.25;96.09;99629.50;5034141;28;20283;-72
2021/12/04 09:24:39;;;;;;;21.35;8.63;;;;;;;4.27;95.61;99625.25;5033846;28;20113;-72
2021/12/04 09:29:44;;;;;;;30.60;13.82;;;;;;;4.28;95.54;99622.72;5032315;28;20037;-72
2021/12/04 10:18:47;;;;;;;33.45;15.38;;;;;;;4.39;94.96;99589.50;5002090;28;20367;-71
2021/12/04 10:35:04;;;;;;;30.63;14.68;;;;;;;4.40;95.27;99572.31;5031273;28;20057;-71
2021/12/04 10:37:30;;;;;;;29.73;12.00;;;;;;;4.38;95.16;99556.81;5036026;28;20052;-71
2021/12/04 10:39:59;;;;;;;28.20;11.82;;;;;;;4.39;95.10;99552.50;5040649;28;20252;-71
2021/12/04 10:42:34;;;;;;;31.48;13.60;;;;;;;4.40;95.33;99549.97;5039138;28;20050;-71
2021/12/04 10:45:00;;;;;;;24.15;11.35;;;;;;;4.41;95.79;99546.56;5038851;28;20021;-70
2021/12/04 10:47:27;;;;;;;30.05;12.57;;;;;;;4.43;95.57;99549.19;5045189;28;20265;-71
2021/12/04 10:50:15;;;;;;;31.15;11.70;;;;;;;4.44;96.09;99538.91;5050320;28;20013;-70
2021/12/04 10:52:56;;;;;;;33.55;13.02;;;;;;;4.47;95.71;99540.72;5043712;28;20049;-70
2021/12/04 10:55:33;;;;;;;31.80;14.00;;;;;;;4.48;95.28;99535.59;5043831;28;20241;-70
2021/12/04 10:58:25;;;;;;;52.70;19.80;;;;;;;4.49;95.68;99529.63;5035117;28;20045;-70
2021/12/04 11:03:39;;;;;;;45.90;17.63;;;;;;;4.52;95.78;99514.22;5039989;28;20272;-70
2021/12/04 11:28:15;;;;;;;30.55;13.80;;;;;;;4.72;95.65;99475.13;5032156;28;20037;-71
2021/12/04 11:38:50;;;;;;;31.45;14.60;;;;;;;4.82;95.54;99476.25;5043127;28;20084;-70
2021/12/04 11:44:26;;;;;;;25.90;12.60;;;;;;;4.83;95.42;99465.97;5041943;28;20055;-70
2021/12/04 11:46:50;;;;;;;23.43;11.53;;;;;;;4.85;95.36;99466.00;5029353;28;20291;-71
2021/12/04 11:49:25;;;;;;;25.55;13.52;;;;;;;4.86;95.19;99457.44;5032571;28;20386;-70
2021/12/04 11:52:02;;;;;;;22.98;12.07;;;;;;;4.86;95.25;99457.44;5029617;28;20037;-70
2021/12/04 11:54:42;;;;;;;23.80;12.02;;;;;;;4.87;95.27;99448.84;5059964;28;20136;-70
2021/12/04 11:57:10;;;;;;;25.50;13.95;;;;;;;4.88;95.48;99446.31;5042219;28;20082;-70
2021/12/04 11:59:37;;;;;;;26.00;12.68;;;;;;;4.91;95.24;99454.94;5041749;28;20275;-71
2021/12/04 12:02:06;;;;;;;24.17;11.65;;;;;;;4.91;95.20;99445.53;5040939;28;20037;-71
2021/12/04 12:04:34;;;;;;;27.23;12.10;;;;;;;4.92;94.99;99441.22;5042914;28;20029;-71
2021/12/04 12:07:10;;;;;;;24.23;11.45;;;;;;;4.91;95.04;99444.63;5042808;28;20025;-71
2021/12/04 12:09:37;;;;;;;23.75;11.50;;;;;;;4.92;95.20;99439.50;5043059;28;20079;-70
2021/12/04 12:12:05;;;;;;;25.15;11.63;;;;;;;4.91;94.82;99435.19;5043030;28;20022;-71
2021/12/04 12:14:39;;;;;;;23.13;10.77;;;;;;;4.91;95.51;99439.47;5040536;28;20029;-70
2021/12/04 12:17:05;;;;;;;23.20;11.07;;;;;;;4.91;95.09;99440.34;5042480;28;20032;-70
2021/12/04 12:19:42;;;;;;;22.92;10.57;;;;;;;4.92;95.08;99436.91;5047446;28;20025;-70
2021/12/04 12:22:22;;;;;;;24.10;11.38;;;;;;;4.91;95.39;99435.19;5042368;28;20045;-71
2021/12/04 12:27:42;;;;;;;21.35;10.45;;;;;;;4.95;95.07;99430.97;5042481;28;20104;-70
2021/12/04 12:36:13;;;;;;;20.83;9.48;;;;;;;4.93;95.56;99427.47;5042563;28;20021;-70
2021/12/04 12:38:53;;;;;;;23.10;11.05;;;;;;;4.93;95.85;99430.06;5042367;28;20049;-70
2021/12/04 12:41:30;;;;;;;21.23;9.88;;;;;;;4.91;95.51;99427.44;5036686;28;20029;-70
2021/12/04 12:44:01;;;;;;;22.88;10.90;;;;;;;4.90;95.79;99433.44;5039314;28;20036;-70
2021/12/04 12:46:32;;;;;;;21.15;9.70;;;;;;;4.90;95.90;99442.91;5034020;28;20199;-70
2021/12/04 12:48:57;;;;;;;21.90;10.25;;;;;;;4.90;95.77;99430.84;5042112;28;20203;-69
2021/12/04 12:51:30;;;;;;;26.63;11.65;;;;;;;4.88;96.38;99442.84;5041223;28;20094;-70
2021/12/04 12:53:58;;;;;;;27.38;11.45;;;;;;;4.86;96.00;99440.22;5041924;28;20102;-70
2021/12/04 12:56:27;;;;;;;32.10;14.00;;;;;;;4.87;96.81;99444.56;5041523;28;20183;-71
2021/12/04 12:59:00;;;;;;;86.18;28.92;;;;;;;4.89;96.21;99434.25;5042394;28;20032;-71
2021/12/04 13:13:37;;;;;;;44.53;21.95;;;;;;;4.88;96.39;99417.91;5041393;28;19916;-71
2021/12/04 13:16:31;;;;;;;73.05;37.50;;;;;;;4.89;96.84;99421.38;5041796;28;20275;-71
2021/12/04 13:19:05;;;;;;;39.47;17.45;;;;;;;4.87;97.04;99418.75;5032656;28;20033;-71
2021/12/04 13:21:38;;;;;;;44.08;19.85;;;;;;;4.88;97.04;99424.78;5037540;28;20047;-71
2021/12/04 13:24:06;;;;;;;39.38;16.83;;;;;;;4.88;97.02;99423.09;5039869;28;20026;-71
2021/12/04 13:26:34;;;;;;;41.05;16.25;;;;;;;4.90;97.08;99419.69;5041576;28;20045;-70
2021/12/04 13:29:01;;;;;;;42.22;16.83;;;;;;;4.90;97.03;99415.38;5065859;28;20024;-70
2021/12/04 13:31:27;;;;;;;41.88;16.98;;;;;;;4.92;96.95;99415.41;5044530;28;20017;-70
2021/12/04 13:33:53;;;;;;;45.95;19.73;;;;;;;4.93;97.28;99414.59;5043724;28;20064;-69
2021/12/04 13:36:22;;;;;;;41.17;15.80;;;;;;;4.94;97.31;99409.44;5044284;28;20045;-70
2021/12/04 13:39:03;;;;;;;42.80;19.63;;;;;;;4.97;96.82;99421.56;5040183;28;20284;-70
2021/12/04 13:41:29;;;;;;;39.38;16.80;;;;;;;4.96;97.14;99412.94;5042858;28;20327;-70
2021/12/04 13:43:58;;;;;;;39.88;15.85;;;;;;;4.97;96.92;99412.09;5043164;28;20029;-70
2021/12/04 13:46:25;;;;;;;37.17;15.43;;;;;;;4.97;96.87;99412.09;5041641;28;20044;-70
2021/12/04 13:48:51;;;;;;;40.63;16.27;;;;;;;4.98;97.22;99413.84;5037811;28;20080;-70
2021/12/04 13:51:17;;;;;;;37.00;14.73;;;;;;;4.99;96.57;99413.00;5030384;28;20283;-70
2021/12/04 13:53:46;;;;;;;39.08;16.05;;;;;;;4.99;97.17;99415.56;5044404;28;20096;-70
2021/12/04 13:56:18;;;;;;;37.60;15.07;;;;;;;5.00;96.74;99414.75;5032803;28;20037;-70
2021/12/04 13:58:50;;;;;;;41.47;18.50;;;;;;;5.01;96.98;99416.50;5036895;28;20135;-70
2021/12/04 14:01:16;;;;;;;42.42;18.77;;;;;;;5.01;96.71;99419.06;5071022;28;20025;-70
2021/12/04 14:03:42;;;;;;;37.03;14.77;;;;;;;5.01;96.76;99406.19;5042512;28;20037;-70
2021/12/04 14:06:13;;;;;;;38.60;14.80;;;;;;;5.02;96.76;99409.63;5039798;28;20029;-71
2021/12/04 14:08:39;;;;;;;34.05;14.18;;;;;;;5.02;97.02;99407.88;5041763;28;20036;-70
2021/12/04 14:11:05;;;;;;;33.25;13.80;;;;;;;5.02;96.79;99418.22;5030992;28;20495;-70
2021/12/04 14:13:31;;;;;;;34.58;14.30;;;;;;;5.02;97.33;99415.63;5038345;28;20118;-70
2021/12/04 14:15:58;;;;;;;36.67;14.60;;;;;;;5.04;97.16;99421.72;5035107;28;20196;-70
2021/12/04 14:18:26;;;;;;;34.30;14.25;;;;;;;5.03;97.02;99414.81;5042947;28;20160;-70
2021/12/04 14:21:00;;;;;;;37.88;15.05;;;;;;;5.04;97.44;99415.69;5038378;28;20300;-70
2021/12/04 14:23:26;;;;;;;35.97;14.02;;;;;;;5.05;97.41;99418.31;5056437;28;20040;-70
2021/12/04 14:25:55;;;;;;;36.05;14.20;;;;;;;5.05;97.46;99413.16;5036653;28;20017;-70